Time;durP1;ratioP1;P1;durP2;ratioP2;P2;SDS_P1;SDS_P2;PMS_P1;PMS_P2;Temp;Humidity;BMP_temperature;BMP_pressure;BME280_temperature;BME280_humidity;BME280_pressure;Samples;Min_cycle;Max_cycle;Signal;HPM_P1;HPM_P2
2021/11/04 00:01:47;;;;;;;71.20;36.70;;;;;;;5.17;100.00;94656.34;5033917;28;20072;-74
2021/11/04 00:04:13;;;;;;;42.90;24.13;;;;;;;5.19;100.00;94647.38;5026864;28;20505;-74
2021/11/04 00:06:39;;;;;;;27.13;17.27;;;;;;;5.20;100.00;94643.00;5039787;28;20426;-74
2021/11/04 00:09:04;;;;;;;21.77;15.53;;;;;;;5.18;100.00;94631.91;5032372;28;20024;-74
2021/11/04 00:11:30;;;;;;;24.53;15.40;;;;;;;5.21;100.00;94623.75;5042915;28;20051;-74
2021/11/04 00:13:56;;;;;;;27.67;18.47;;;;;;;5.28;100.00;94613.50;5027193;28;20139;-74
2021/11/04 00:16:22;;;;;;;21.20;14.40;;;;;;;5.30;100.00;94628.00;5033243;28;20037;-75
2021/11/04 00:18:48;;;;;;;15.80;12.87;;;;;;;5.33;100.00;94619.84;5049589;28;20832;-75
2021/11/04 00:21:13;;;;;;;17.57;12.77;;;;;;;5.32;100.00;94615.59;5041450;28;20044;-75
2021/11/04 00:23:40;;;;;;;18.27;13.23;;;;;;;5.33;100.00;94608.56;5047949;28;20027;-75
2021/11/04 00:26:06;;;;;;;20.43;14.67;;;;;;;5.34;100.00;94600.59;5021111;28;20029;-74
2021/11/04 00:28:31;;;;;;;19.50;14.07;;;;;;;5.30;100.00;94591.50;5033177;28;20021;-74
2021/11/04 00:30:58;;;;;;;20.30;14.70;;;;;;;5.24;100.00;94605.19;5061905;28;20079;-74
2021/11/04 00:33:23;;;;;;;18.80;14.47;;;;;;;5.17;100.00;94612.06;5035481;28;20112;-74
2021/11/04 00:35:49;;;;;;;19.43;14.20;;;;;;;5.15;100.00;94608.78;5052495;28;20474;-75
2021/11/04 00:38:15;;;;;;;17.77;13.57;;;;;;;5.15;100.00;94598.38;5017999;28;20033;-74
2021/11/04 00:40:40;;;;;;;19.30;14.23;;;;;;;5.10;100.00;94598.88;5022501;28;20106;-74
2021/11/04 00:43:06;;;;;;;141.07;53.93;;;;;;;5.11;100.00;94592.66;5044257;28;20033;-74
2021/11/04 00:45:32;;;;;;;52.10;24.83;;;;;;;5.11;100.00;94592.66;5043237;28;20099;-74
2021/11/04 00:47:58;;;;;;;349.77;121.57;;;;;;;5.14;100.00;94576.72;5019307;28;20025;-74
2021/11/04 00:50:25;;;;;;;148.37;54.37;;;;;;;5.12;100.00;94590.88;5048213;28;20036;-75
2021/11/04 00:52:52;;;;;;;467.63;154.70;;;;;;;5.15;100.00;94599.16;5030764;28;20032;-75
2021/11/04 00:55:18;;;;;;;140.00;52.43;;;;;;;5.17;100.00;94601.63;5048904;28;20044;-75
2021/11/04 00:57:43;;;;;;;287.30;103.17;;;;;;;5.11;100.00;94608.31;5035311;28;20393;-75
2021/11/04 01:00:13;;;;;;;308.53;113.57;;;;;;;5.15;100.00;94619.22;5041350;28;20040;-75
2021/11/04 01:02:39;;;;;;;44.87;22.67;;;;;;;5.24;100.00;94633.84;5060090;28;20063;-75
2021/11/04 01:05:06;;;;;;;15.37;12.07;;;;;;;5.25;100.00;94630.28;5044084;28;20030;-74
2021/11/04 01:07:31;;;;;;;15.63;11.13;;;;;;;5.25;100.00;94645.91;5053667;28;20139;-74
2021/11/04 01:09:57;;;;;;;19.13;13.13;;;;;;;5.25;100.00;94645.91;5065432;28;20028;-74
2021/11/04 01:12:23;;;;;;;25.73;15.27;;;;;;;5.22;100.00;94646.22;5019050;28;20100;-75
2021/11/04 01:14:49;;;;;;;122.47;52.33;;;;;;;5.20;100.00;94651.63;5038339;28;20064;-74
2021/11/04 01:17:15;;;;;;;44.77;25.00;;;;;;;5.17;100.00;94643.31;5032752;28;20067;-75
2021/11/04 01:19:40;;;;;;;188.50;71.60;;;;;;;5.20;100.00;94640.38;5053741;28;20033;-75
2021/11/04 01:22:06;;;;;;;96.10;40.40;;;;;;;5.21;100.00;94628.97;5036198;28;20504;-75
2021/11/04 01:24:32;;;;;;;370.97;134.57;;;;;;;5.23;100.00;94641.81;5015781;28;20029;-74
2021/11/04 01:26:58;;;;;;;309.67;118.93;;;;;;;5.27;100.00;94632.72;5051732;28;20126;-75
2021/11/04 01:29:24;;;;;;;154.43;68.33;;;;;;;5.25;100.00;94626.84;5041176;28;20048;-74
2021/11/04 01:31:50;;;;;;;55.27;32.20;;;;;;;5.24;100.00;94623.44;5040991;28;20033;-75
2021/11/04 01:34:16;;;;;;;54.37;31.67;;;;;;;5.23;100.00;94623.59;5034335;28;20064;-74
2021/11/04 01:36:41;;;;;;;88.97;47.03;;;;;;;5.25;100.00;94614.63;5030926;28;20542;-74
2021/11/04 01:39:07;;;;;;;35.40;23.43;;;;;;;5.26;100.00;94605.00;5050690;28;20544;-74
2021/11/04 01:41:33;;;;;;;20.23;15.93;;;;;;;5.24;100.00;94597.38;5039154;28;20060;-74
2021/11/04 01:43:59;;;;;;;23.73;16.80;;;;;;;5.23;100.00;94607.94;5039208;28;20086;-74
2021/11/04 01:46:26;;;;;;;22.83;18.73;;;;;;;5.20;100.00;94611.72;5062249;28;20031;-75
2021/11/04 01:48:52;;;;;;;28.47;22.00;;;;;;;5.24;100.00;94613.00;5061149;28;20033;-75
2021/11/04 01:51:19;;;;;;;18.13;13.20;;;;;;;5.16;100.00;94613.00;5038470;28;20021;-74
2021/11/04 01:53:46;;;;;;;15.93;11.87;;;;;;;5.21;100.00;94613.34;5015598;28;20388;-75
2021/11/04 01:56:11;;;;;;;16.53;12.83;;;;;;;5.21;100.00;94615.94;5035749;28;20032;-75
2021/11/04 01:58:37;;;;;;;16.90;12.57;;;;;;;5.19;100.00;94613.50;5036751;28;20037;-74
2021/11/04 02:01:04;;;;;;;19.43;13.47;;;;;;;5.22;100.00;94614.16;5057250;28;20123;-74
2021/11/04 02:04:08;;;;;;;15.47;12.57;;;;;;;5.23;100.00;94610.56;5037116;28;20577;-75
2021/11/04 02:06:43;;;;;;;12.85;8.63;;;;;;;5.20;100.00;94607.31;5004903;28;20046;-74
2021/11/04 02:09:28;;;;;;;16.23;12.87;;;;;;;5.25;100.00;94611.22;5038027;28;20032;-75
2021/11/04 02:12:04;;;;;;;15.53;11.53;;;;;;;5.23;100.00;94606.19;5049435;28;20225;-75
2021/11/04 02:14:37;;;;;;;15.10;12.30;;;;;;;5.23;100.00;94611.41;5035920;28;20428;-75
2021/11/04 02:17:05;;;;;;;15.30;12.80;;;;;;;5.25;100.00;94613.81;5058941;28;20033;-75
2021/11/04 02:19:55;;;;;;;16.60;12.63;;;;;;;5.27;100.00;94619.69;5044577;28;20163;-74
2021/11/04 02:22:27;;;;;;;15.63;11.87;;;;;;;5.28;100.00;94629.94;5053245;28;20106;-74
2021/11/04 02:25:15;;;;;;;17.57;12.80;;;;;;;5.26;100.00;94624.06;5044454;28;20115;-74
2021/11/04 02:27:47;;;;;;;16.23;12.70;;;;;;;5.27;100.00;94628.31;5059000;28;20122;-74
2021/11/04 02:30:14;;;;;;;17.57;12.33;;;;;;;5.31;100.00;94634.81;5047585;28;20033;-75
2021/11/04 02:32:41;;;;;;;18.60;14.17;;;;;;;5.31;100.00;94639.22;5037999;28;20040;-75
2021/11/04 02:35:08;;;;;;;18.07;13.90;;;;;;;5.32;100.00;94640.84;5033451;28;20033;-76
2021/11/04 02:37:35;;;;;;;18.07;14.07;;;;;;;5.28;100.00;94632.53;5061059;28;20025;-75
2021/11/04 02:40:02;;;;;;;19.77;14.53;;;;;;;5.27;100.00;94633.53;5033708;28;20480;-75
2021/11/04 02:42:29;;;;;;;19.43;15.00;;;;;;;5.27;100.00;94643.97;5040674;28;20449;-75
2021/11/04 02:44:55;;;;;;;19.17;14.40;;;;;;;5.24;100.00;94639.06;5024466;28;20121;-75
2021/11/04 02:47:22;;;;;;;18.13;13.97;;;;;;;5.27;100.00;94632.72;5032720;28;20386;-75
2021/11/04 02:49:48;;;;;;;19.67;14.80;;;;;;;5.30;100.00;94638.41;5052781;28;20025;-75
2021/11/04 02:52:15;;;;;;;18.40;14.60;;;;;;;5.27;100.00;94638.75;5042792;28;20017;-75
2021/11/04 02:54:55;;;;;;;16.43;13.47;;;;;;;5.26;100.00;94628.47;5028315;28;20414;-75
2021/11/04 02:57:22;;;;;;;17.27;13.80;;;;;;;5.26;100.00;94631.88;5033056;28;20033;-75
2021/11/04 02:59:49;;;;;;;16.83;13.40;;;;;;;5.21;100.00;94642.00;5038963;28;20039;-76
2021/11/04 03:02:15;;;;;;;17.37;13.37;;;;;;;5.16;100.00;94639.06;5063306;28;20057;-75
2021/11/04 03:04:41;;;;;;;16.30;13.13;;;;;;;5.15;100.00;94640.06;5054226;28;20464;-75
2021/11/04 03:07:07;;;;;;;19.70;13.37;;;;;;;5.14;100.00;94638.44;5052643;28;20029;-75
2021/11/04 03:09:33;;;;;;;17.67;13.17;;;;;;;5.16;100.00;94639.91;5056586;28;20059;-76
2021/11/04 03:11:59;;;;;;;19.67;14.03;;;;;;;5.11;100.00;94636.97;5052967;28;20024;-75
2021/11/04 03:14:25;;;;;;;15.57;12.93;;;;;;;5.11;100.00;94641.38;5057690;28;20037;-75
2021/11/04 03:16:54;;;;;;;17.20;13.07;;;;;;;5.15;100.00;94635.66;5029023;28;20037;-75
2021/11/04 03:19:22;;;;;;;18.60;14.07;;;;;;;5.09;100.00;94636.31;5019462;28;20040;-75
2021/11/04 03:21:51;;;;;;;18.37;13.93;;;;;;;5.07;100.00;94637.47;5021964;28;20040;-75
2021/11/04 03:24:18;;;;;;;16.47;13.07;;;;;;;5.12;100.00;94629.97;5032911;28;20032;-76
2021/11/04 03:26:48;;;;;;;17.20;12.67;;;;;;;5.10;100.00;94629.34;5045077;28;20156;-75
2021/11/04 03:29:17;;;;;;;17.73;13.13;;;;;;;5.03;100.00;94625.72;5055919;28;20482;-75
2021/11/04 03:31:45;;;;;;;18.33;13.93;;;;;;;5.04;100.00;94619.56;5029120;28;20127;-75
2021/11/04 03:34:12;;;;;;;15.77;12.67;;;;;;;5.03;100.00;94610.09;5043933;28;20099;-75
2021/11/04 03:36:40;;;;;;;16.97;12.90;;;;;;;5.01;100.00;94614.69;5035072;28;20020;-75
2021/11/04 03:39:06;;;;;;;16.87;12.97;;;;;;;5.02;100.00;94611.09;5041949;28;20029;-74
2021/11/04 03:41:34;;;;;;;19.00;13.70;;;;;;;5.04;100.00;94603.94;5064448;28;20406;-75
2021/11/04 03:44:00;;;;;;;19.40;13.57;;;;;;;5.01;100.00;94607.69;5054039;28;20397;-75
2021/11/04 03:46:27;;;;;;;20.97;13.50;;;;;;;4.99;100.00;94608.81;5040476;28;20020;-74
2021/11/04 03:48:53;;;;;;;19.03;14.17;;;;;;;4.90;100.00;94608.84;5037363;28;20037;-75
2021/11/04 03:51:21;;;;;;;17.60;12.97;;;;;;;4.94;100.00;94611.91;5054156;28;20033;-74
2021/11/04 03:53:48;;;;;;;19.73;13.87;;;;;;;4.95;100.00;94614.34;5037958;28;20056;-75
2021/11/04 03:56:15;;;;;;;19.07;13.73;;;;;;;4.99;100.00;94609.63;5056772;28;20382;-75
2021/11/04 03:58:41;;;;;;;20.47;14.17;;;;;;;5.02;100.00;94614.50;5039815;28;20036;-75
2021/11/04 04:01:08;;;;;;;18.03;12.70;;;;;;;4.97;100.00;94622.00;5052393;28;20584;-75
2021/11/04 04:03:37;;;;;;;16.53;12.63;;;;;;;4.95;100.00;94613.53;5038599;28;20138;-74
2021/11/04 04:06:06;;;;;;;15.90;12.27;;;;;;;4.85;100.00;94608.50;5036689;28;20024;-75
2021/11/04 04:08:35;;;;;;;15.53;12.13;;;;;;;4.85;100.00;94613.69;5061157;28;20037;-74
2021/11/04 04:11:02;;;;;;;17.37;13.13;;;;;;;4.85;100.00;94624.13;5038108;28;20074;-74
2021/11/04 04:13:28;;;;;;;17.37;12.47;;;;;;;4.83;100.00;94628.69;5042184;28;20029;-75
2021/11/04 04:15:56;;;;;;;13.90;10.57;;;;;;;4.80;100.00;94636.84;5064100;28;20027;-75
2021/11/04 04:18:22;;;;;;;12.23;8.63;;;;;;;4.78;100.00;94643.97;5036343;28;20051;-75
2021/11/04 04:20:50;;;;;;;10.97;7.47;;;;;;;4.73;100.00;94647.09;5039021;28;20025;-74
2021/11/04 04:23:17;;;;;;;10.23;5.20;;;;;;;4.64;100.00;94647.25;5015445;28;20033;-74
2021/11/04 04:25:43;;;;;;;8.93;4.93;;;;;;;4.61;100.00;94647.56;5056516;28;20032;-75
2021/11/04 04:28:09;;;;;;;6.97;4.23;;;;;;;4.56;100.00;94649.81;5064811;28;20036;-74
2021/11/04 04:30:35;;;;;;;6.53;3.90;;;;;;;4.53;100.00;94639.72;5056103;28;20486;-74
2021/11/04 04:33:01;;;;;;;4.43;2.80;;;;;;;4.41;100.00;94639.25;5036708;28;20039;-74
2021/11/04 04:35:27;;;;;;;3.80;2.30;;;;;;;4.26;100.00;94636.47;5048024;28;20070;-74
2021/11/04 04:37:53;;;;;;;5.13;2.50;;;;;;;4.18;100.00;94641.63;5042211;28;20132;-75
2021/11/04 04:40:19;;;;;;;3.90;2.40;;;;;;;4.19;100.00;94649.28;5029348;28;20112;-75
2021/11/04 04:42:45;;;;;;;4.60;2.70;;;;;;;4.20;100.00;94647.50;5043936;28;20041;-75
2021/11/04 04:45:11;;;;;;;4.33;2.70;;;;;;;4.08;100.00;94653.97;5062078;28;20393;-75
2021/11/04 04:47:37;;;;;;;5.27;2.70;;;;;;;4.06;100.00;94661.94;5038298;28;20021;-75
2021/11/04 04:50:04;;;;;;;6.30;2.57;;;;;;;3.97;100.00;94665.47;5064306;28;20021;-75
2021/11/04 04:52:31;;;;;;;6.57;3.00;;;;;;;3.98;100.00;94667.91;5026043;28;20548;-75
2021/11/04 04:54:57;;;;;;;5.60;3.27;;;;;;;3.82;100.00;94672.22;5045204;28;20029;-75
2021/11/04 04:57:23;;;;;;;6.00;3.23;;;;;;;3.76;100.00;94673.69;5054964;28;20033;-75
2021/11/04 04:59:58;;;;;;;5.37;3.10;;;;;;;3.78;100.00;94680.34;5045269;28;20102;-75
2021/11/04 05:02:25;;;;;;;8.70;3.60;;;;;;;3.75;100.00;94682.44;5040998;28;20028;-76
2021/11/04 05:04:51;;;;;;;6.87;3.70;;;;;;;3.73;100.00;94687.00;5044527;28;20025;-75
2021/11/04 05:07:18;;;;;;;6.23;3.90;;;;;;;3.78;100.00;94695.94;5042363;28;20039;-75
2021/11/04 05:09:44;;;;;;;6.40;3.73;;;;;;;3.63;100.00;94709.69;5050267;28;20036;-75
2021/11/04 05:12:10;;;;;;;6.03;3.50;;;;;;;3.60;100.00;94717.78;5047253;28;20485;-75
2021/11/04 05:14:36;;;;;;;6.67;3.77;;;;;;;3.61;100.00;94717.63;5058733;28;20036;-74
2021/11/04 05:17:03;;;;;;;7.20;4.00;;;;;;;3.52;100.00;94714.19;5065874;28;20021;-74
2021/11/04 05:19:28;;;;;;;8.00;3.90;;;;;;;3.57;100.00;94725.91;5041990;28;20060;-74
2021/11/04 05:21:54;;;;;;;7.40;3.70;;;;;;;3.53;100.00;94718.41;5034013;28;20063;-74
2021/11/04 05:24:20;;;;;;;7.87;4.17;;;;;;;3.49;100.00;94719.69;5050082;28;20046;-74
2021/11/04 05:26:47;;;;;;;9.27;4.70;;;;;;;3.51;100.00;94728.13;5034291;28;20563;-75
2021/11/04 05:29:13;;;;;;;7.10;4.37;;;;;;;3.54;100.00;94730.41;5062643;28;20012;-75
2021/11/04 05:31:40;;;;;;;6.90;3.97;;;;;;;3.45;100.00;94738.31;5038638;28;20040;-74
2021/11/04 05:34:06;;;;;;;7.40;4.13;;;;;;;3.49;100.00;94740.47;5046006;28;20021;-75
2021/11/04 05:36:32;;;;;;;6.90;4.33;;;;;;;3.44;100.00;94749.69;5040895;28;20032;-75
2021/11/04 05:38:58;;;;;;;7.50;4.67;;;;;;;3.38;100.00;94748.50;5018702;28;20493;-75
2021/11/04 05:41:25;;;;;;;6.87;4.07;;;;;;;3.35;100.00;94746.19;5056783;28;20115;-75
2021/11/04 05:43:50;;;;;;;6.70;4.43;;;;;;;3.35;100.00;94753.19;5030906;28;20020;-75
2021/11/04 05:46:16;;;;;;;6.83;4.13;;;;;;;3.38;100.00;94764.09;5042948;28;20386;-75
2021/11/04 05:48:42;;;;;;;7.23;4.40;;;;;;;3.29;100.00;94770.22;5033552;28;20119;-75
2021/11/04 05:51:08;;;;;;;6.27;3.77;;;;;;;3.27;100.00;94772.94;5066609;28;20066;-75
2021/11/04 05:53:33;;;;;;;7.10;3.93;;;;;;;3.28;100.00;94776.34;5053420;28;20105;-76
2021/11/04 05:55:59;;;;;;;8.30;4.90;;;;;;;3.33;100.00;94775.91;5041737;28;20093;-75
2021/11/04 05:58:25;;;;;;;6.83;4.03;;;;;;;3.23;100.00;94782.00;5047979;28;20108;-75
2021/11/04 06:00:50;;;;;;;6.23;4.13;;;;;;;3.18;100.00;94793.81;5039466;28;20037;-75
2021/11/04 06:03:16;;;;;;;7.73;4.87;;;;;;;3.21;100.00;94788.31;5058434;28;20033;-75
2021/11/04 06:05:43;;;;;;;8.30;4.97;;;;;;;3.11;100.00;94795.38;5048426;28;20035;-75
2021/11/04 06:08:10;;;;;;;6.30;3.90;;;;;;;3.05;100.00;94795.00;5027160;28;20799;-75
2021/11/04 06:10:36;;;;;;;8.00;4.97;;;;;;;3.15;100.00;94794.09;5062146;28;20591;-75
2021/11/04 06:13:03;;;;;;;7.33;4.50;;;;;;;3.09;100.00;94805.13;5062006;28;20114;-75
2021/11/04 06:15:29;;;;;;;7.23;4.03;;;;;;;3.09;100.00;94810.31;5040052;28;20098;-75
2021/11/04 06:17:55;;;;;;;7.23;4.53;;;;;;;3.13;100.00;94806.44;5049298;28;20566;-75
2021/11/04 06:20:20;;;;;;;8.80;4.13;;;;;;;3.13;100.00;94822.03;5040133;28;20029;-75
2021/11/04 06:22:46;;;;;;;6.80;4.47;;;;;;;3.14;100.00;94815.84;5061920;28;20120;-75
2021/11/04 06:25:12;;;;;;;6.10;3.90;;;;;;;3.14;100.00;94814.06;5052292;28;20035;-75
2021/11/04 06:27:38;;;;;;;6.40;3.70;;;;;;;3.10;100.00;94815.34;5043866;28;20390;-74
2021/11/04 06:30:06;;;;;;;8.73;5.07;;;;;;;2.97;100.00;94818.28;5048051;28;20047;-74
2021/11/04 06:32:34;;;;;;;9.43;5.63;;;;;;;3.03;100.00;94828.09;5053958;28;20115;-74
2021/11/04 06:35:04;;;;;;;6.00;3.53;;;;;;;3.02;100.00;94829.06;5064186;28;20029;-74
2021/11/04 06:37:30;;;;;;;4.93;2.80;;;;;;;2.99;100.00;94837.16;5057134;28;20563;-74
2021/11/04 06:39:56;;;;;;;4.77;2.37;;;;;;;3.04;100.00;94834.91;5045519;28;20021;-74
2021/11/04 06:42:22;;;;;;;4.87;2.10;;;;;;;3.07;100.00;94839.81;5023575;28;20441;-74
2021/11/04 06:44:47;;;;;;;3.70;2.00;;;;;;;3.01;100.00;94840.41;5033134;28;20071;-74
2021/11/04 06:47:25;;;;;;;3.70;2.17;;;;;;;3.03;100.00;94841.09;5043725;28;20718;-74
2021/11/04 06:49:53;;;;;;;3.90;2.30;;;;;;;3.03;100.00;94841.09;5052656;28;20636;-75
2021/11/04 06:52:25;;;;;;;4.93;2.50;;;;;;;3.03;100.00;94842.88;5027384;28;20032;-74
2021/11/04 06:54:53;;;;;;;3.87;2.10;;;;;;;3.01;100.00;94849.97;5051554;28;20044;-75
2021/11/04 06:57:19;;;;;;;4.20;2.33;;;;;;;3.02;100.00;94859.41;5039346;28;20028;-76
2021/11/04 06:59:49;;;;;;;6.00;2.73;;;;;;;3.03;100.00;94861.84;5062076;28;20033;-75
2021/11/04 07:02:29;;;;;;;4.97;3.00;;;;;;;3.04;100.00;94862.66;5040805;28;20023;-75
2021/11/04 07:04:56;;;;;;;7.57;4.03;;;;;;;3.08;100.00;94861.41;5063353;28;20039;-74
2021/11/04 07:07:23;;;;;;;11.80;7.50;;;;;;;3.13;100.00;94864.41;5045448;28;20032;-75
2021/11/04 07:09:49;;;;;;;9.47;5.00;;;;;;;3.16;100.00;94871.91;5060378;28;20036;-75
2021/11/04 07:12:15;;;;;;;7.10;4.13;;;;;;;3.16;100.00;94873.69;5027914;28;20055;-76
2021/11/04 07:14:42;;;;;;;6.60;3.90;;;;;;;3.23;100.00;94882.50;5042539;28;20032;-74
2021/11/04 07:17:13;;;;;;;6.67;4.30;;;;;;;3.16;100.00;94889.28;5043701;28;20111;-74
2021/11/04 07:19:39;;;;;;;7.93;4.90;;;;;;;3.21;100.00;94889.63;5041283;28;20039;-75
2021/11/04 07:22:34;;;;;;;9.10;5.60;;;;;;;3.21;100.00;94895.63;5038215;28;20036;-74
2021/11/04 07:25:05;;;;;;;9.85;5.80;;;;;;;3.24;100.00;94891.94;5042531;28;20024;-75
2021/11/04 07:27:37;;;;;;;6.97;4.67;;;;;;;3.24;100.00;94897.13;5034645;28;20041;-74
2021/11/04 07:30:10;;;;;;;7.73;4.93;;;;;;;3.28;100.00;94898.47;5020196;28;20040;-75
2021/11/04 07:32:47;;;;;;;8.17;4.90;;;;;;;3.37;100.00;94904.56;5041272;28;20056;-74
2021/11/04 07:35:19;;;;;;;8.67;5.40;;;;;;;3.39;100.00;94900.06;5061593;28;20043;-75
2021/11/04 07:37:46;;;;;;;8.27;5.63;;;;;;;3.37;100.00;94912.38;5058339;28;20045;-75
2021/11/04 07:40:13;;;;;;;9.80;5.70;;;;;;;3.33;100.00;94911.84;5043743;28;20082;-74
2021/11/04 07:42:41;;;;;;;9.27;5.37;;;;;;;3.40;100.00;94914.66;5048199;28;20040;-74
2021/11/04 07:45:07;;;;;;;8.37;5.57;;;;;;;3.40;100.00;94912.88;5043870;28;20129;-74
2021/11/04 07:47:36;;;;;;;7.40;4.80;;;;;;;3.44;100.00;94914.22;5066949;28;20111;-75
2021/11/04 07:50:04;;;;;;;11.27;8.07;;;;;;;3.42;100.00;94916.16;5046543;28;20020;-74
2021/11/04 07:52:30;;;;;;;8.97;5.87;;;;;;;3.41;100.00;94919.72;5050505;28;20034;-74
2021/11/04 07:54:55;;;;;;;8.10;5.10;;;;;;;3.43;100.00;94916.97;5056525;28;20028;-76
2021/11/04 07:57:21;;;;;;;6.90;4.50;;;;;;;3.45;100.00;94915.84;5048264;28;20032;-75
2021/11/04 07:59:47;;;;;;;7.87;3.83;;;;;;;3.42;100.00;94921.38;5041922;28;20025;-75
2021/11/04 08:02:12;;;;;;;7.80;4.33;;;;;;;3.45;100.00;94925.44;5026100;28;20028;-75
2021/11/04 08:04:38;;;;;;;6.97;4.30;;;;;;;3.55;100.00;94931.38;5043524;28;20031;-75
2021/11/04 08:07:04;;;;;;;7.00;4.20;;;;;;;3.46;100.00;94933.09;5037617;28;20124;-75
2021/11/04 08:09:30;;;;;;;6.33;4.53;;;;;;;3.53;100.00;94938.50;5054033;28;20024;-75
2021/11/04 08:11:57;;;;;;;6.10;3.73;;;;;;;3.44;100.00;94935.00;5055166;28;20056;-74
2021/11/04 08:14:23;;;;;;;6.63;4.13;;;;;;;3.51;100.00;94935.22;5054016;28;20025;-74
2021/11/04 08:16:49;;;;;;;7.23;4.53;;;;;;;3.56;100.00;94933.03;5041738;28;20052;-74
2021/11/04 08:19:15;;;;;;;6.13;3.60;;;;;;;3.52;100.00;94937.72;5019356;28;20607;-74
2021/11/04 08:21:41;;;;;;;6.00;3.97;;;;;;;3.59;100.00;94932.72;5042428;28;20127;-74
2021/11/04 08:24:07;;;;;;;11.47;7.50;;;;;;;3.57;100.00;94928.63;5043746;28;20453;-74
2021/11/04 08:26:33;;;;;;;10.73;6.07;;;;;;;3.63;100.00;94939.25;5038695;28;20029;-74
2021/11/04 08:29:01;;;;;;;9.50;4.53;;;;;;;3.62;100.00;94936.78;5050589;28;20533;-75
2021/11/04 08:31:28;;;;;;;5.73;3.63;;;;;;;3.60;100.00;94943.94;5037295;28;20033;-74
2021/11/04 08:33:54;;;;;;;6.50;3.97;;;;;;;3.63;100.00;94938.44;5056564;28;20942;-75
2021/11/04 08:36:19;;;;;;;5.93;3.80;;;;;;;3.65;100.00;94941.69;5037690;28;20029;-75
2021/11/04 08:38:46;;;;;;;6.13;3.73;;;;;;;3.59;100.00;94953.53;5041452;28;20500;-75
2021/11/04 08:41:12;;;;;;;5.83;3.47;;;;;;;3.64;100.00;94947.88;5064650;28;20029;-75
2021/11/04 08:43:39;;;;;;;6.80;4.03;;;;;;;3.67;100.00;94945.78;5030157;28;20032;-75
2021/11/04 08:46:04;;;;;;;6.23;3.30;;;;;;;3.67;100.00;94950.19;5039964;28;20378;-75
2021/11/04 08:48:30;;;;;;;6.20;3.63;;;;;;;3.70;100.00;94949.88;5037241;28;20028;-74
2021/11/04 08:50:56;;;;;;;6.20;3.60;;;;;;;3.84;100.00;94959.75;5032324;28;20074;-74
2021/11/04 08:53:21;;;;;;;5.93;3.53;;;;;;;3.73;100.00;94958.19;5038633;28;20051;-75
2021/11/04 08:55:47;;;;;;;6.27;3.87;;;;;;;3.72;100.00;94960.94;5034365;28;20039;-74
2021/11/04 08:58:13;;;;;;;7.23;4.00;;;;;;;3.87;100.00;94959.47;5041738;28;20101;-74
2021/11/04 09:00:39;;;;;;;5.87;3.30;;;;;;;3.81;100.00;94961.84;5044100;28;20036;-74
2021/11/04 09:03:05;;;;;;;5.57;3.20;;;;;;;3.81;100.00;94967.03;5044677;28;20024;-75
2021/11/04 09:05:30;;;;;;;5.30;2.93;;;;;;;3.84;100.00;94977.97;5052174;28;20112;-74
2021/11/04 09:07:56;;;;;;;5.50;3.33;;;;;;;3.86;100.00;94963.03;5041585;28;20554;-74
2021/11/04 09:10:22;;;;;;;8.53;3.47;;;;;;;3.93;100.00;94977.06;5044348;28;20037;-74
2021/11/04 09:12:49;;;;;;;7.07;4.20;;;;;;;3.89;100.00;94970.53;5020321;28;20025;-75
2021/11/04 09:15:15;;;;;;;6.23;3.73;;;;;;;4.14;100.00;94978.53;5041184;28;20033;-74
2021/11/04 09:17:42;;;;;;;5.33;3.33;;;;;;;3.97;100.00;94983.59;5043368;28;20032;-75
2021/11/04 09:20:11;;;;;;;6.50;3.70;;;;;;;4.00;100.00;94985.09;5046863;28;20040;-74
2021/11/04 09:22:37;;;;;;;5.70;3.37;;;;;;;4.03;100.00;94997.81;5048656;28;20037;-76
2021/11/04 09:25:05;;;;;;;5.60;3.20;;;;;;;3.94;100.00;94989.09;5044043;28;20032;-76
2021/11/04 09:27:31;;;;;;;5.07;3.33;;;;;;;4.02;100.00;94996.16;5063158;28;20168;-75
2021/11/04 09:29:58;;;;;;;4.30;2.83;;;;;;;4.01;100.00;94999.72;5064439;28;20507;-75
2021/11/04 09:32:24;;;;;;;7.27;4.20;;;;;;;4.11;100.00;95004.84;5055104;28;20120;-74
2021/11/04 09:34:51;;;;;;;5.60;2.50;;;;;;;4.12;100.00;95011.69;5049828;28;20111;-73
2021/11/04 09:37:18;;;;;;;4.67;2.80;;;;;;;4.15;100.00;95011.38;5059192;28;20029;-74
2021/11/04 09:39:44;;;;;;;4.37;2.50;;;;;;;4.20;100.00;95023.00;5040175;28;20032;-74
2021/11/04 09:42:11;;;;;;;5.03;2.47;;;;;;;4.15;100.00;95024.41;5040725;28;20021;-74
2021/11/04 09:44:37;;;;;;;4.17;2.43;;;;;;;4.21;100.00;95029.81;5058592;28;20033;-75
2021/11/04 09:47:03;;;;;;;3.93;2.37;;;;;;;4.30;100.00;95035.13;5039403;28;20025;-74
2021/11/04 09:49:29;;;;;;;4.70;2.87;;;;;;;4.22;100.00;95048.84;5045128;28;20041;-75
2021/11/04 09:51:56;;;;;;;4.90;2.87;;;;;;;4.25;100.00;95054.56;5050904;28;20043;-74
2021/11/04 09:54:24;;;;;;;4.80;3.10;;;;;;;4.37;100.00;95056.97;5032870;28;20040;-74
2021/11/04 09:56:50;;;;;;;3.80;2.53;;;;;;;4.25;100.00;95053.75;5047183;28;20401;-74
2021/11/04 09:59:16;;;;;;;3.80;2.20;;;;;;;4.11;100.00;95056.88;5040880;28;20077;-74
2021/11/04 10:01:49;;;;;;;3.13;2.17;;;;;;;4.11;100.00;95062.09;5066794;28;20386;-74
2021/11/04 10:04:29;;;;;;;4.72;2.60;;;;;;;4.17;100.00;95057.13;5041186;28;20512;-75
2021/11/04 10:06:56;;;;;;;4.67;2.57;;;;;;;4.20;100.00;95063.81;5026153;28;20406;-74
2021/11/04 10:09:29;;;;;;;3.03;2.20;;;;;;;4.13;100.00;95066.19;5047049;28;20398;-75
2021/11/04 10:11:55;;;;;;;3.43;2.17;;;;;;;4.14;100.00;95061.81;5049019;28;20478;-74
2021/11/04 10:14:21;;;;;;;2.20;1.43;;;;;;;4.06;100.00;95069.50;5034648;28;20025;-74
2021/11/04 10:16:47;;;;;;;7.33;4.70;;;;;;;4.09;100.00;95067.47;5026758;28;20120;-74
2021/11/04 10:19:15;;;;;;;3.90;2.07;;;;;;;4.10;100.00;95070.88;5048527;28;20032;-74
2021/11/04 10:21:52;;;;;;;2.53;1.50;;;;;;;4.22;100.00;95077.47;5053590;28;20033;-74
2021/11/04 10:24:23;;;;;;;2.40;1.53;;;;;;;4.25;100.00;95077.19;5040017;28;20033;-74
2021/11/04 10:26:54;;;;;;;2.77;1.50;;;;;;;4.29;100.00;95080.31;5060189;28;20167;-74
2021/11/04 10:29:21;;;;;;;3.10;1.20;;;;;;;4.17;100.00;95082.31;5062918;28;20098;-74
2021/11/04 10:31:50;;;;;;;1.63;1.17;;;;;;;4.18;100.00;95089.16;5040664;28;20024;-74
2021/11/04 10:34:23;;;;;;;1.07;0.80;;;;;;;4.13;100.00;95091.41;5039755;28;20769;-74
2021/11/04 10:36:51;;;;;;;3.90;1.00;;;;;;;4.21;100.00;95096.66;5041361;28;20490;-74
2021/11/04 10:39:17;;;;;;;1.87;1.10;;;;;;;4.18;100.00;95100.38;5065184;28;20028;-74
2021/11/04 10:41:44;;;;;;;2.67;0.90;;;;;;;4.18;100.00;95104.75;5051536;28;20096;-74
2021/11/04 10:44:12;;;;;;;3.00;1.10;;;;;;;4.24;100.00;95109.38;5025545;28;20050;-74
2021/11/04 10:46:45;;;;;;;0.97;0.87;;;;;;;4.12;100.00;95107.94;5041684;28;20486;-75
2021/11/04 10:49:11;;;;;;;1.17;0.73;;;;;;;4.09;100.00;95109.09;5061415;28;20029;-73
2021/11/04 10:51:38;;;;;;;3.77;1.30;;;;;;;4.12;100.00;95126.16;5030327;28;20028;-75
2021/11/04 10:54:07;;;;;;;1.43;0.80;;;;;;;4.18;100.00;95120.38;5035660;28;20064;-75
2021/11/04 10:56:35;;;;;;;1.10;0.67;;;;;;;4.19;100.00;95122.84;5033321;28;20108;-74
2021/11/04 10:59:17;;;;;;;2.50;0.90;;;;;;;4.12;100.00;95124.38;5053285;28;20115;-74
2021/11/04 11:01:48;;;;;;;1.07;0.60;;;;;;;4.22;100.00;95132.94;5035633;28;20413;-74
2021/11/04 11:04:15;;;;;;;1.30;0.83;;;;;;;4.23;100.00;95126.78;5033102;28;20452;-74
2021/11/04 11:06:47;;;;;;;1.33;0.70;;;;;;;4.27;100.00;95137.72;5023678;28;20051;-75
2021/11/04 11:09:18;;;;;;;4.57;2.53;;;;;;;4.30;100.00;95134.81;5033547;28;20040;-75
2021/11/04 11:11:50;;;;;;;2.73;1.10;;;;;;;4.32;100.00;95138.06;5023209;28;20036;-74
2021/11/04 11:14:18;;;;;;;2.13;0.90;;;;;;;4.30;100.00;95140.03;5057923;28;20060;-74
2021/11/04 11:16:51;;;;;;;3.07;1.30;;;;;;;4.41;100.00;95149.41;5042091;28;20090;-75
2021/11/04 11:19:21;;;;;;;;;;;;;;;4.51;100.00;95141.53;5031406;28;20398;-77
2021/11/04 11:21:51;;;;;;;14.37;8.27;;;;;;;4.37;100.00;95151.47;5041194;28;20381;-74
2021/11/04 11:24:41;;;;;;;1.93;1.10;;;;;;;4.44;100.00;95157.72;5036603;28;20028;-74
2021/11/04 11:27:09;;;;;;;2.20;0.90;;;;;;;4.37;100.00;95159.28;5015994;28;20053;-75
2021/11/04 11:29:37;;;;;;;1.07;0.93;;;;;;;4.47;100.00;95152.22;5016786;28;20025;-74